Aérodrome :
LOGIN :

S'inscrire | Disclaimer

   EN    FR    IT 

 










Légende :    VFR   VFR Marginal   IFR   IFR Intensif   IFR Très Intensif
Visi : 
Plafond : 
>= 8 km
>= 3000ft
5 à 8 km
1000 à 3000 ft
1500m à 5 km
500 à 1000 ft
800 à 1500m
200 à 500 ft
< 800m
< 200 ft
Symboles :   Orages  Brouillard  Fortes neiges  Fortes précipitations  Vent > 20 kt
SIGMETs :   Divers  Orages  Givrage  Turbulence  Onde Orograph.  Cendres Volcan.






- Altitude de l'aérodrome : 465 ft
- Code IATA : OMR


LROD - Oradea International

DERNIER METAR :
  • 210430Z AUTO 20002KT 3200 BR FEW004/// OVC031/// M00/M01 Q1044

METARs EXPIRÉS :
  • 210400Z AUTO 20003KT 3500 BR SCT004/// OVC032/// M00/M01 Q1045
  • 210330Z AUTO 22002KT 4000 BR BKN004/// OVC032/// M00/M01 Q1045
  • 210300Z AUTO 24003KT 5000 BR BKN004/// OVC032/// M00/M01 Q1045
  • 210230Z AUTO 20002KT 4200 BR BKN005/// OVC033/// M00/M01 Q1045
  • 210200Z AUTO 22001KT 4400 BR BKN005/// OVC033/// M00/M01 Q1045

TAF TAF LROD
Valide du 21 à 03h jusqu'au 21 à 12h UTC


210200Z 2103/2112 VRB04KT 5000 BR BKN030
TEMPO 2103/2106 1500 BR BKN005 BKN020
BECMG 2106/2108 9999 NSW



MET'MAP, la Météo Aéronautique d'un coup d'oeil ! - Copyright ORBIFLY Décembre 2007 - Disclaimer

ORBIFLY MET'MAP TEAM :

Programmation & Développement : Alexandra Zaïnal
Sur une idée originale de : Baudouin d'Aumeries
Assistance à la programmation : Marc-Olivier Méhu
Soutien technique & logistique : Manuel Goepfert

Contact : metmap@orbifly.com




SOURCES & CREDITS :

   NOAA